createdAt,value
2024-04-23T00:00:20.044Z,0.15
2024-04-23T00:02:47.049Z,0.16
2024-04-23T00:05:14.144Z,0.12
2024-04-23T00:07:41.199Z,0.14
2024-04-23T00:10:08.164Z,0.11
2024-04-23T00:12:35.137Z,0.06
2024-04-23T00:15:02.103Z,-0.01
2024-04-23T00:17:29.180Z,-0.05
2024-04-23T00:19:56.291Z,-0.01
2024-04-23T00:22:23.453Z,-0.04
2024-04-23T00:24:50.450Z,-0.03
2024-04-23T00:27:17.421Z,-0.08
2024-04-23T00:29:44.455Z,-0.05
2024-04-23T00:32:12.415Z,-0.02
2024-04-23T00:34:39.529Z,-0.01
2024-04-23T00:37:06.621Z,-0.02
2024-04-23T00:39:33.593Z,-0.01
2024-04-23T00:42:00.568Z,0.04
2024-04-23T00:44:27.515Z,0.06
2024-04-23T00:46:55.442Z,0.09
2024-04-23T00:49:22.784Z,0.09
2024-04-23T00:51:51.855Z,0.10
2024-04-23T00:54:21.710Z,0.07
2024-04-23T00:56:48.887Z,0.02
2024-04-23T00:59:17.682Z,0.04
2024-04-23T01:01:45.701Z,-0.01
2024-04-23T01:04:13.589Z,-0.02
2024-04-23T01:06:41.213Z,-0.05
2024-04-23T01:09:08.999Z,-0.16
2024-04-23T01:11:36.765Z,-0.19
2024-04-23T01:14:05.247Z,-0.23
2024-04-23T01:16:36.187Z,-0.28
2024-04-23T01:19:06.122Z,-0.32
2024-04-23T01:21:44.180Z,-0.38
2024-04-23T01:24:17.058Z,-0.41
2024-04-23T01:26:44.447Z,-0.42
2024-04-23T01:29:11.662Z,-0.42
2024-04-23T01:31:39.774Z,-0.43
2024-04-23T01:34:07.039Z,-0.42
2024-04-23T01:36:34.022Z,-0.49
2024-04-23T01:39:02.050Z,-0.48
2024-04-23T01:41:29.321Z,-0.46
2024-04-23T01:43:58.213Z,-0.47
2024-04-23T01:46:25.675Z,-0.42
2024-04-23T01:48:53.212Z,-0.44
2024-04-23T01:51:20.248Z,-0.43
2024-04-23T01:53:47.196Z,-0.39
2024-04-23T01:56:14.243Z,-0.45
2024-04-23T01:58:43.255Z,-0.44
2024-04-23T02:01:11.948Z,-0.46
2024-04-23T02:03:39.601Z,-0.47
2024-04-23T02:06:07.501Z,-0.44
2024-04-23T02:08:34.516Z,-0.45
2024-04-23T02:11:01.567Z,-0.48
2024-04-23T02:13:28.742Z,-0.51
2024-04-23T02:15:55.778Z,-0.57
2024-04-23T02:18:22.864Z,-0.61
2024-04-23T02:20:49.892Z,-0.63
2024-04-23T02:23:16.902Z,-0.66
2024-04-23T02:25:43.886Z,-0.74
2024-04-23T02:28:10.917Z,-0.71
2024-04-23T02:30:38.999Z,-0.75
2024-04-23T02:33:11.631Z,-0.79
2024-04-23T02:35:39.647Z,-0.84
2024-04-23T02:38:06.364Z,-0.93
2024-04-23T02:40:33.175Z,-0.95
2024-04-23T02:42:59.876Z,-1.01
2024-04-23T02:45:30.035Z,-1.02
2024-04-23T02:47:57.993Z,-0.99
2024-04-23T02:50:24.715Z,-0.98
2024-04-23T02:52:51.423Z,-0.96
2024-04-23T02:55:18.092Z,-0.92
2024-04-23T02:57:44.718Z,-0.95
2024-04-23T03:00:11.886Z,-0.96
2024-04-23T03:02:38.636Z,-0.98
2024-04-23T03:05:05.581Z,-1.00
2024-04-23T03:07:32.353Z,-0.98
2024-04-23T03:09:59.053Z,-0.97
2024-04-23T03:12:25.739Z,-1.00
2024-04-23T03:14:52.391Z,-1.06
2024-04-23T03:17:19.037Z,-1.06
2024-04-23T03:19:45.815Z,-1.11
2024-04-23T03:22:12.567Z,-1.10
2024-04-23T03:24:39.687Z,-1.12
2024-04-23T03:27:06.421Z,-1.08
2024-04-23T03:29:33.132Z,-1.10
2024-04-23T03:32:02.812Z,-1.13
2024-04-23T03:34:30.532Z,-1.15
2024-04-23T03:36:57.872Z,-1.18
2024-04-23T03:39:25.091Z,-1.24
2024-04-23T03:41:55.373Z,-1.25
2024-04-23T03:44:22.077Z,-1.30
2024-04-23T03:46:48.831Z,-1.36
2024-04-23T03:49:15.486Z,-1.38
2024-04-23T03:51:42.159Z,-1.41
2024-04-23T03:54:08.831Z,-1.40
2024-04-23T03:56:36.977Z,-1.39
2024-04-23T03:59:03.888Z,-1.38
2024-04-23T04:01:30.648Z,-1.37
2024-04-23T04:04:15.943Z,-1.39
2024-04-23T04:06:42.615Z,-1.39
2024-04-23T04:09:09.285Z,-1.48
2024-04-23T04:11:37.646Z,-1.55
2024-04-23T04:14:04.469Z,-1.58
2024-04-23T04:16:33.404Z,-1.56
2024-04-23T04:19:01.952Z,-1.58
2024-04-23T04:21:28.636Z,-1.58
2024-04-23T04:23:55.334Z,-1.56
2024-04-23T04:26:21.989Z,-1.54
2024-04-23T04:28:48.699Z,-1.53
2024-04-23T04:31:15.418Z,-1.55
2024-04-23T04:33:42.496Z,-1.51
2024-04-23T04:36:09.568Z,-1.42
2024-04-23T04:38:36.585Z,-1.38
2024-04-23T04:41:03.855Z,-1.39
2024-04-23T04:43:33.600Z,-1.32
2024-04-23T04:46:00.665Z,-1.26
2024-04-23T04:48:28.051Z,-1.18
2024-04-23T04:50:56.286Z,-1.16
2024-04-23T04:53:23.299Z,-1.14
2024-04-23T04:55:50.365Z,-1.12
2024-04-23T04:58:17.356Z,-1.09
2024-04-23T05:00:45.021Z,-1.06
2024-04-23T05:03:12.101Z,-1.04
2024-04-23T05:05:39.048Z,-1.01
2024-04-23T05:08:06.628Z,-0.98
2024-04-23T05:10:33.966Z,-0.94
2024-04-23T05:13:00.982Z,-0.89
2024-04-23T05:15:27.999Z,-0.84
2024-04-23T05:17:55.060Z,-0.71
2024-04-23T05:20:22.136Z,-0.63
2024-04-23T05:22:49.171Z,-0.53
2024-04-23T05:25:16.134Z,-0.44
2024-04-23T05:27:43.160Z,-0.20
2024-04-23T05:30:20.093Z,-0.03
2024-04-23T05:32:50.066Z,0.13
2024-04-23T05:35:17.630Z,0.18
2024-04-23T05:37:44.757Z,0.20
2024-04-23T05:40:12.163Z,0.24
2024-04-23T05:42:39.298Z,0.26
2024-04-23T05:45:06.662Z,0.31
2024-04-23T05:47:52.505Z,0.37
2024-04-23T05:50:57.594Z,0.44
2024-04-23T05:54:02.251Z,0.49
2024-04-23T05:56:29.201Z,0.60
2024-04-23T05:58:56.210Z,0.72
2024-04-23T06:01:23.442Z,0.82
2024-04-23T06:03:50.456Z,0.94
2024-04-23T06:06:17.438Z,1.10
2024-04-23T06:08:44.442Z,1.25
2024-04-23T06:11:11.512Z,1.31
2024-04-23T06:13:38.633Z,1.33
2024-04-23T06:16:11.895Z,1.33
2024-04-23T06:18:39.008Z,1.37
2024-04-23T06:21:07.944Z,1.42
2024-04-23T06:23:34.910Z,1.51
2024-04-23T06:26:01.936Z,1.59
2024-04-23T06:28:34.227Z,1.65
2024-04-23T06:31:02.386Z,1.74
2024-04-23T06:33:29.404Z,1.79
2024-04-23T06:35:56.401Z,1.85
2024-04-23T06:38:23.388Z,1.93
2024-04-23T06:40:52.121Z,2.01
2024-04-23T06:43:19.146Z,2.07
2024-04-23T06:45:46.394Z,2.20
2024-04-23T06:48:17.209Z,2.33
2024-04-23T06:50:44.224Z,2.44
2024-04-23T06:53:12.232Z,2.54
2024-04-23T06:55:39.327Z,2.60
2024-04-23T06:58:06.778Z,2.65
2024-04-23T07:00:33.839Z,2.79
2024-04-23T07:03:04.367Z,2.93
2024-04-23T07:05:31.411Z,3.09
2024-04-23T07:07:59.711Z,3.27
2024-04-23T07:10:27.006Z,3.46
2024-04-23T07:12:54.003Z,3.63
2024-04-23T07:15:20.982Z,3.80
2024-04-23T07:17:49.920Z,3.98
2024-04-23T07:20:17.090Z,4.12
2024-04-23T07:22:44.162Z,4.23
2024-04-23T07:25:11.250Z,4.41
2024-04-23T07:27:40.776Z,4.51
2024-04-23T07:30:08.158Z,4.54
2024-04-23T07:32:35.220Z,4.59
2024-04-23T07:35:02.339Z,4.57
2024-04-23T07:37:29.369Z,4.51
2024-04-23T07:39:56.342Z,4.53
2024-04-23T07:42:23.318Z,4.53
2024-04-23T07:44:50.289Z,4.58
2024-04-23T07:47:19.249Z,4.62
2024-04-23T07:49:46.513Z,4.62
2024-04-23T07:52:13.500Z,4.57
2024-04-23T07:54:40.165Z,4.65
2024-04-23T07:57:06.833Z,4.69
2024-04-23T07:59:33.472Z,4.73
2024-04-23T08:02:00.306Z,4.72
2024-04-23T08:04:27.057Z,4.70
2024-04-23T08:06:53.733Z,4.75
2024-04-23T08:09:20.389Z,4.84
2024-04-23T08:11:47.347Z,4.86
2024-04-23T08:14:14.102Z,4.91
2024-04-23T08:16:40.822Z,4.97
2024-04-23T08:19:07.713Z,4.94
2024-04-23T08:21:38.076Z,4.97
2024-04-23T08:24:05.088Z,4.89
2024-04-23T08:26:31.903Z,4.96
2024-04-23T08:28:59.673Z,4.93
2024-04-23T08:31:26.944Z,4.97
2024-04-23T08:33:53.634Z,5.08
2024-04-23T08:36:20.492Z,5.17
2024-04-23T08:38:47.140Z,5.18
2024-04-23T08:41:19.605Z,5.29
2024-04-23T08:44:03.993Z,5.32
2024-04-23T08:46:31.355Z,5.37
2024-04-23T08:48:58.772Z,5.45
2024-04-23T08:51:25.536Z,5.53
2024-04-23T08:53:54.246Z,5.60
2024-04-23T08:56:24.012Z,5.58
2024-04-23T08:58:52.105Z,5.62
2024-04-23T09:01:40.084Z,5.69
2024-04-23T09:04:07.990Z,5.69
2024-04-23T09:06:35.469Z,5.80
2024-04-23T09:09:02.384Z,5.82
2024-04-23T09:11:30.070Z,5.99
2024-04-23T09:13:57.099Z,6.08
2024-04-23T09:16:24.486Z,6.27
2024-04-23T09:18:51.226Z,6.35
2024-04-23T09:21:17.960Z,6.45
2024-04-23T09:23:47.615Z,6.54
2024-04-23T09:26:14.644Z,6.71
2024-04-23T09:28:43.014Z,6.83
2024-04-23T09:31:16.596Z,6.90
2024-04-23T09:33:56.951Z,7.02
2024-04-23T09:36:28.262Z,7.10
2024-04-23T09:39:04.242Z,7.07
2024-04-23T09:41:32.717Z,7.12
2024-04-23T09:44:00.801Z,7.06
2024-04-23T09:46:32.759Z,6.96
2024-04-23T09:49:03.537Z,7.05
2024-04-23T09:51:31.441Z,7.08
2024-04-23T09:54:01.846Z,7.22
2024-04-23T09:56:28.912Z,7.20
2024-04-23T09:58:56.096Z,7.22
2024-04-23T10:01:27.129Z,7.31
2024-04-23T10:03:59.783Z,7.39
2024-04-23T10:06:30.000Z,7.53
2024-04-23T10:09:09.394Z,7.47
2024-04-23T10:11:57.143Z,7.54
2024-04-23T10:14:27.994Z,7.69
2024-04-23T10:17:03.016Z,7.70
2024-04-23T10:19:32.933Z,7.82
2024-04-23T10:22:02.317Z,7.89
2024-04-23T10:24:29.992Z,7.93
2024-04-23T10:26:58.092Z,8.00
2024-04-23T10:29:26.651Z,8.05
2024-04-23T10:31:54.101Z,8.15
2024-04-23T10:34:23.774Z,8.31
2024-04-23T10:36:52.529Z,8.44
2024-04-23T10:39:23.913Z,8.66
2024-04-23T10:41:52.846Z,8.85
2024-04-23T10:44:22.948Z,9.06
2024-04-23T10:46:50.152Z,9.24
2024-04-23T10:49:17.442Z,9.21
2024-04-23T10:51:45.807Z,9.22
2024-04-23T10:54:20.115Z,9.27
2024-04-23T10:57:08.486Z,9.22
2024-04-23T10:59:38.434Z,9.37
2024-04-23T11:02:10.512Z,9.43
2024-04-23T11:04:56.666Z,9.49
2024-04-23T11:07:28.632Z,9.54
2024-04-23T11:10:01.511Z,9.33
2024-04-23T11:12:32.284Z,9.23
2024-04-23T11:14:59.660Z,9.12
2024-04-23T11:17:27.371Z,9.05
2024-04-23T11:19:57.513Z,9.02
2024-04-23T11:22:45.662Z,9.18
2024-04-23T11:25:22.586Z,9.26
2024-04-23T11:27:49.724Z,9.41
2024-04-23T11:30:17.163Z,9.53
2024-04-23T11:32:44.265Z,9.66
2024-04-23T11:35:12.539Z,9.76
2024-04-23T11:37:40.160Z,9.85
2024-04-23T11:40:07.907Z,9.81
2024-04-23T11:42:34.960Z,9.98
2024-04-23T11:45:05.682Z,10.19
2024-04-23T11:47:34.816Z,10.69
2024-04-23T11:50:06.911Z,11.32
2024-04-23T11:52:35.045Z,11.90
2024-04-23T11:55:04.979Z,12.35
2024-04-23T11:57:32.926Z,12.16
2024-04-23T12:00:02.660Z,11.78
2024-04-23T12:02:32.914Z,11.52
2024-04-23T12:05:02.991Z,11.09
2024-04-23T12:07:30.809Z,10.47
2024-04-23T12:10:05.066Z,10.44
2024-04-23T12:12:36.806Z,10.19
2024-04-23T12:15:04.338Z,10.10
2024-04-23T12:17:31.478Z,10.13
2024-04-23T12:19:58.603Z,10.16
2024-04-23T12:22:25.586Z,10.19
2024-04-23T12:24:52.691Z,10.47
2024-04-23T12:27:22.075Z,10.93
2024-04-23T12:29:49.185Z,11.40
2024-04-23T12:32:23.981Z,11.42
2024-04-23T12:34:57.122Z,11.42
2024-04-23T12:37:24.270Z,10.81
2024-04-23T12:39:54.343Z,10.53
2024-04-23T12:42:26.074Z,10.18
2024-04-23T12:44:53.822Z,9.95
2024-04-23T12:47:21.771Z,9.79
2024-04-23T12:49:49.406Z,9.69
2024-04-23T12:52:17.081Z,9.52
2024-04-23T12:54:44.654Z,9.59
2024-04-23T12:57:12.545Z,9.56
2024-04-23T12:59:39.754Z,9.61
2024-04-23T13:02:09.974Z,9.77
2024-04-23T13:04:37.568Z,9.90
2024-04-23T13:07:04.812Z,9.91
2024-04-23T13:09:31.813Z,9.86
2024-04-23T13:12:01.139Z,9.65
2024-04-23T13:14:28.236Z,9.78
2024-04-23T13:16:55.896Z,9.72
2024-04-23T13:19:26.275Z,9.81
2024-04-23T13:21:53.319Z,9.94
2024-04-23T13:24:20.398Z,10.10
2024-04-23T13:26:47.527Z,10.23
2024-04-23T13:29:14.720Z,10.31
2024-04-23T13:31:42.046Z,10.39
2024-04-23T13:34:09.219Z,10.37
2024-04-23T13:36:36.513Z,10.33
2024-04-23T13:39:03.588Z,10.31
2024-04-23T13:41:30.573Z,10.16
2024-04-23T13:43:57.560Z,9.95
2024-04-23T13:46:24.581Z,9.87
2024-04-23T13:48:51.733Z,9.67
2024-04-23T13:51:18.753Z,9.67
2024-04-23T13:53:46.382Z,9.67
2024-04-23T13:56:13.765Z,9.65
2024-04-23T13:58:41.082Z,9.45
2024-04-23T14:01:11.531Z,9.43
2024-04-23T14:03:39.695Z,9.55
2024-04-23T14:06:08.113Z,9.65
2024-04-23T14:08:35.827Z,9.62
2024-04-23T14:11:04.339Z,9.56
2024-04-23T14:13:35.557Z,9.73
2024-04-23T14:16:13.151Z,9.74
2024-04-23T14:18:42.097Z,9.79
2024-04-23T14:21:09.308Z,9.85
2024-04-23T14:23:36.664Z,9.83
2024-04-23T14:26:04.075Z,9.77
2024-04-23T14:28:35.406Z,9.70
2024-04-23T14:31:04.503Z,9.71
2024-04-23T14:33:32.327Z,9.68
2024-04-23T14:36:05.907Z,9.77
2024-04-23T14:38:33.156Z,9.63
2024-04-23T14:41:01.656Z,9.57
2024-04-23T14:43:28.845Z,9.48
2024-04-23T14:45:56.520Z,9.43
2024-04-23T14:48:24.359Z,9.36
2024-04-23T14:50:51.734Z,9.47
2024-04-23T14:53:21.485Z,9.36
2024-04-23T14:56:02.128Z,9.47
2024-04-23T14:58:30.576Z,9.58
2024-04-23T15:00:58.299Z,9.69
2024-04-23T15:03:25.656Z,9.80
2024-04-23T15:05:52.717Z,9.93
2024-04-23T15:08:19.815Z,10.00
2024-04-23T15:10:48.081Z,9.97
2024-04-23T15:13:15.808Z,10.01
2024-04-23T15:15:42.788Z,9.84
2024-04-23T15:18:09.856Z,9.82
2024-04-23T15:20:38.574Z,9.82
2024-04-23T15:23:05.988Z,9.84
2024-04-23T15:25:33.209Z,9.84
2024-04-23T15:28:00.203Z,9.74
2024-04-23T15:30:28.400Z,9.60
2024-04-23T15:32:56.544Z,9.47
2024-04-23T15:35:24.517Z,9.47
2024-04-23T15:37:51.735Z,9.46
2024-04-23T15:40:18.932Z,9.38
2024-04-23T15:42:45.941Z,9.39
2024-04-23T15:45:13.998Z,9.38
2024-04-23T15:47:41.439Z,9.41
2024-04-23T15:50:08.917Z,9.30
2024-04-23T15:52:36.072Z,9.34
2024-04-23T15:55:03.275Z,9.32
2024-04-23T15:57:30.285Z,9.28
2024-04-23T15:59:57.256Z,9.26
2024-04-23T16:02:28.642Z,9.25
2024-04-23T16:04:55.744Z,9.27
2024-04-23T16:07:22.592Z,9.25
2024-04-23T16:09:49.949Z,9.29
2024-04-23T16:12:16.935Z,9.13
2024-04-23T16:14:43.609Z,9.11
2024-04-23T16:17:10.345Z,9.05
2024-04-23T16:19:37.117Z,9.08
2024-04-23T16:22:03.802Z,9.08
2024-04-23T16:24:30.485Z,9.01
2024-04-23T16:27:01.103Z,9.07
2024-04-23T16:29:29.494Z,8.97
2024-04-23T16:31:57.486Z,8.92
2024-04-23T16:34:24.665Z,8.88
2024-04-23T16:36:54.125Z,8.86
2024-04-23T16:39:22.728Z,8.80
2024-04-23T16:41:51.094Z,8.80
2024-04-23T16:44:17.807Z,8.81
2024-04-23T16:46:44.506Z,8.79
2024-04-23T16:49:11.159Z,8.83
2024-04-23T16:51:37.844Z,8.89
2024-04-23T16:54:06.134Z,8.96
2024-04-23T16:56:32.854Z,8.94
2024-04-23T16:58:59.681Z,8.97
2024-04-23T17:01:26.441Z,8.96
2024-04-23T17:03:53.252Z,8.91
2024-04-23T17:06:19.944Z,8.85
2024-04-23T17:08:46.965Z,8.83
2024-04-23T17:11:13.661Z,8.74
2024-04-23T17:13:44.321Z,8.69
2024-04-23T17:16:15.334Z,8.67
2024-04-23T17:18:42.108Z,8.63
2024-04-23T17:21:16.196Z,8.59
2024-04-23T17:23:43.732Z,8.55
2024-04-23T17:26:11.135Z,8.48
2024-04-23T17:28:37.879Z,8.41
2024-04-23T17:31:05.190Z,8.35
2024-04-23T17:33:34.722Z,8.30
2024-04-23T17:36:01.722Z,8.24
2024-04-23T17:38:28.417Z,8.23
2024-04-23T17:40:55.136Z,8.21
2024-04-23T17:43:22.551Z,8.16
2024-04-23T17:45:49.453Z,8.17
2024-04-23T17:48:16.851Z,8.15
2024-04-23T17:50:43.681Z,8.14
2024-04-23T17:53:10.446Z,8.11
2024-04-23T17:55:37.208Z,8.08
2024-04-23T17:58:04.030Z,8.04
2024-04-23T18:00:30.999Z,8.01
2024-04-23T18:02:57.796Z,7.98
2024-04-23T18:05:24.908Z,7.96
2024-04-23T18:07:52.245Z,7.91
2024-04-23T18:10:19.279Z,7.87
2024-04-23T18:12:47.129Z,7.76
2024-04-23T18:15:14.223Z,7.75
2024-04-23T18:17:43.852Z,7.59
2024-04-23T18:20:11.022Z,7.46
2024-04-23T18:22:38.352Z,7.44
2024-04-23T18:25:05.663Z,7.32
2024-04-23T18:27:32.678Z,7.24
2024-04-23T18:29:59.660Z,7.22
2024-04-23T18:32:27.363Z,7.11
2024-04-23T18:34:54.404Z,7.04
2024-04-23T18:37:21.873Z,7.02
2024-04-23T18:39:49.181Z,7.02
2024-04-23T18:42:16.162Z,6.78
2024-04-23T18:44:43.160Z,6.74
2024-04-23T18:47:10.128Z,6.63
2024-04-23T18:49:37.257Z,6.49
2024-04-23T18:52:05.024Z,6.41
2024-04-23T18:54:33.466Z,6.33
2024-04-23T18:57:00.602Z,6.15
2024-04-23T18:59:27.582Z,6.08
2024-04-23T19:01:56.491Z,6.01
2024-04-23T19:04:23.558Z,6.09
2024-04-23T19:06:50.543Z,6.03
2024-04-23T19:09:17.562Z,5.92
2024-04-23T19:11:45.175Z,5.84
2024-04-23T19:14:16.605Z,5.65
2024-04-23T19:16:45.271Z,5.54
2024-04-23T19:19:12.596Z,5.49
2024-04-23T19:21:39.663Z,5.35
2024-04-23T19:24:07.058Z,5.31
2024-04-23T19:26:34.045Z,5.30
2024-04-23T19:29:01.224Z,5.30
2024-04-23T19:31:28.244Z,5.32
2024-04-23T19:33:55.344Z,5.27
2024-04-23T19:36:27.910Z,5.28
2024-04-23T19:38:54.895Z,5.28
2024-04-23T19:41:22.452Z,5.20
2024-04-23T19:43:53.030Z,5.23
2024-04-23T19:46:24.307Z,5.18
2024-04-23T19:48:53.136Z,5.20
2024-04-23T19:51:23.852Z,5.22
2024-04-23T19:53:51.670Z,5.20
2024-04-23T19:56:27.582Z,5.19
2024-04-23T19:58:57.193Z,5.19
2024-04-23T20:01:24.625Z,5.13
2024-04-23T20:03:51.756Z,5.18
2024-04-23T20:06:18.758Z,5.21
2024-04-23T20:08:45.735Z,5.18
2024-04-23T20:11:12.905Z,5.13
2024-04-23T20:13:40.973Z,5.17
2024-04-23T20:16:08.031Z,5.18
2024-04-23T20:18:35.079Z,5.17
2024-04-23T20:21:02.253Z,5.15
2024-04-23T20:23:29.248Z,5.10
2024-04-23T20:25:56.279Z,5.13
2024-04-23T20:28:23.604Z,5.10
2024-04-23T20:30:50.610Z,5.06
2024-04-23T20:33:17.734Z,5.07
2024-04-23T20:35:44.790Z,5.07
2024-04-23T20:38:11.810Z,5.02
2024-04-23T20:40:39.771Z,4.95
2024-04-23T20:43:06.910Z,5.04
2024-04-23T20:45:33.919Z,4.99
2024-04-23T20:48:01.010Z,4.97
2024-04-23T20:50:28.129Z,5.02
2024-04-23T20:52:55.119Z,5.02
2024-04-23T20:55:22.063Z,4.98
2024-04-23T20:57:49.044Z,5.02
2024-04-23T21:00:16.171Z,4.99
2024-04-23T21:02:43.219Z,4.99
2024-04-23T21:05:10.933Z,5.00
2024-04-23T21:07:40.637Z,4.99
2024-04-23T21:10:07.824Z,4.99
2024-04-23T21:12:34.904Z,4.99
2024-04-23T21:15:02.087Z,4.98
2024-04-23T21:17:29.139Z,4.98
2024-04-23T21:19:56.129Z,4.98
2024-04-23T21:22:23.135Z,4.96
2024-04-23T21:24:50.129Z,4.94
2024-04-23T21:27:17.124Z,4.91
2024-04-23T21:29:45.190Z,4.91
2024-04-23T21:32:12.686Z,4.87
2024-04-23T21:34:39.830Z,4.85
2024-04-23T21:37:06.842Z,4.83
2024-04-23T21:39:33.867Z,4.85
2024-04-23T21:42:00.873Z,4.78
2024-04-23T21:44:27.953Z,4.81
2024-04-23T21:46:55.031Z,4.81
2024-04-23T21:49:22.070Z,4.67
2024-04-23T21:52:15.145Z,4.69
2024-04-23T21:54:45.717Z,4.67
2024-04-23T21:57:13.495Z,4.67
2024-04-23T21:59:40.819Z,4.61
2024-04-23T22:02:07.951Z,4.53
2024-04-23T22:04:35.001Z,4.46
2024-04-23T22:07:01.984Z,4.44
2024-04-23T22:09:28.975Z,4.36
2024-04-23T22:11:56.082Z,4.33
2024-04-23T22:14:23.049Z,4.27
2024-04-23T22:16:50.470Z,4.30
2024-04-23T22:19:17.550Z,4.24
2024-04-23T22:21:44.505Z,4.23
2024-04-23T22:24:11.488Z,4.26
2024-04-23T22:26:38.467Z,4.12
2024-04-23T22:29:05.462Z,4.22
2024-04-23T22:31:32.495Z,4.22
2024-04-23T22:33:59.499Z,4.24
2024-04-23T22:36:26.685Z,4.27
2024-04-23T22:38:53.718Z,4.27
2024-04-23T22:41:20.913Z,4.30
2024-04-23T22:43:47.966Z,4.30
2024-04-23T22:46:14.966Z,4.21
2024-04-23T22:48:42.038Z,4.25
2024-04-23T22:51:09.037Z,4.18
2024-04-23T22:53:36.017Z,4.25
2024-04-23T22:56:03.164Z,4.27
2024-04-23T22:58:30.234Z,4.31
2024-04-23T23:00:57.298Z,4.31
2024-04-23T23:03:24.400Z,4.30
2024-04-23T23:05:51.390Z,4.32
2024-04-23T23:08:18.432Z,4.31
2024-04-23T23:10:45.163Z,4.28
2024-04-23T23:13:11.856Z,4.28
2024-04-23T23:15:38.523Z,4.29
2024-04-23T23:18:05.272Z,4.32
2024-04-23T23:20:32.255Z,4.25
2024-04-23T23:22:58.996Z,4.35
2024-04-23T23:25:25.804Z,4.37
2024-04-23T23:27:52.466Z,4.38
2024-04-23T23:30:19.168Z,4.37
2024-04-23T23:32:45.935Z,4.34
2024-04-23T23:35:12.765Z,4.43
2024-04-23T23:37:39.443Z,4.42
2024-04-23T23:40:07.524Z,4.44
2024-04-23T23:42:34.177Z,4.46
2024-04-23T23:45:00.826Z,4.34
2024-04-23T23:47:27.572Z,4.44
2024-04-23T23:49:54.378Z,4.44
2024-04-23T23:52:21.054Z,4.46
2024-04-23T23:54:47.764Z,4.48
2024-04-23T23:57:14.475Z,4.44
2024-04-23T23:59:41.135Z,4.45
